Alkabo, North Dakota
Current Conditions -  °F | °C
As of 4:52 AM on Thursday 23 Oct 2014 (Local Time) from KISN Reporting Station
Clear Clear  
Wind Chill: 36°   Ceiling: Unl
Heat Index: 36°   Visibility: 10mi
Dew Point: 31°   Wind: 3mph
Humidity: 82%   Direction: 200°SSW
Pressure: 29.85"   Gusts: NA
Location:  48.5901°N, 103.922°W
Report Text: KISN 230952Z AUTO 20003KT 10SM CLR 02/M01 A2985 RMK AO2 SLP114 T00221006
Loading
Personal Weather Stations






























Interactive Weather Map
Tropical Storm Tracking
New forecast layout! Learn more

10-Day Weather Forecast

Advertisements
Track Severe Weather on mobile